sensor_id;sensor_type;location;lat;lon;timestamp;pressure;altitude;pressure_sealevel;temperature;humidity
10948;BME280;5526;42.070;24.752;2023-02-11T00:00:38;100825.63;;;-1.36;48.37
10948;BME280;5526;42.070;24.752;2023-02-11T00:03:05;100827.00;;;-1.32;48.62
10948;BME280;5526;42.070;24.752;2023-02-11T00:05:32;100834.75;;;-1.32;48.90
10948;BME280;5526;42.070;24.752;2023-02-11T00:08:00;100837.72;;;-1.37;48.74
10948;BME280;5526;42.070;24.752;2023-02-11T00:10:27;100824.25;;;-1.40;48.94
10948;BME280;5526;42.070;24.752;2023-02-11T00:12:54;100822.47;;;-1.40;49.26
10948;BME280;5526;42.070;24.752;2023-02-11T00:15:22;100835.41;;;-1.30;49.16
10948;BME280;5526;42.070;24.752;2023-02-11T00:17:49;100838.13;;;-1.32;49.22
10948;BME280;5526;42.070;24.752;2023-02-11T00:20:16;100845.50;;;-1.27;49.27
10948;BME280;5526;42.070;24.752;2023-02-11T00:22:43;100837.47;;;-1.34;49.05
10948;BME280;5526;42.070;24.752;2023-02-11T00:25:11;100838.41;;;-1.35;48.56
10948;BME280;5526;42.070;24.752;2023-02-11T00:27:38;100840.44;;;-1.29;48.98
10948;BME280;5526;42.070;24.752;2023-02-11T00:30:06;100838.97;;;-1.31;48.76
10948;BME280;5526;42.070;24.752;2023-02-11T00:32:33;100829.44;;;-1.40;48.67
10948;BME280;5526;42.070;24.752;2023-02-11T00:35:00;100833.91;;;-1.33;48.93
10948;BME280;5526;42.070;24.752;2023-02-11T00:37:27;100840.84;;;-1.33;48.61
10948;BME280;5526;42.070;24.752;2023-02-11T00:39:54;100838.56;;;-1.27;48.65
10948;BME280;5526;42.070;24.752;2023-02-11T00:42:22;100844.00;;;-1.30;48.36
10948;BME280;5526;42.070;24.752;2023-02-11T00:44:49;100844.63;;;-1.47;47.43
10948;BME280;5526;42.070;24.752;2023-02-11T00:47:16;100836.06;;;-1.47;47.47
10948;BME280;5526;42.070;24.752;2023-02-11T00:49:43;100823.41;;;-1.50;48.38
10948;BME280;5526;42.070;24.752;2023-02-11T00:52:10;100833.09;;;-1.43;48.29
10948;BME280;5526;42.070;24.752;2023-02-11T00:54:37;100825.34;;;-1.33;48.25
10948;BME280;5526;42.070;24.752;2023-02-11T00:57:04;100834.31;;;-1.28;48.04
10948;BME280;5526;42.070;24.752;2023-02-11T00:59:32;100834.19;;;-1.26;47.64
10948;BME280;5526;42.070;24.752;2023-02-11T01:01:59;100809.84;;;-1.33;47.85
10948;BME280;5526;42.070;24.752;2023-02-11T01:04:26;100820.75;;;-1.30;47.66
10948;BME280;5526;42.070;24.752;2023-02-11T01:06:53;100822.38;;;-1.29;48.03
10948;BME280;5526;42.070;24.752;2023-02-11T01:09:20;100825.91;;;-1.30;48.16
10948;BME280;5526;42.070;24.752;2023-02-11T01:11:47;100820.50;;;-1.27;48.22
10948;BME280;5526;42.070;24.752;2023-02-11T01:14:14;100823.34;;;-1.20;48.36
10948;BME280;5526;42.070;24.752;2023-02-11T01:16:43;100809.34;;;-1.18;48.04
10948;BME280;5526;42.070;24.752;2023-02-11T01:19:10;100796.00;;;-1.32;47.98
10948;BME280;5526;42.070;24.752;2023-02-11T01:21:37;100813.53;;;-1.26;48.23
10948;BME280;5526;42.070;24.752;2023-02-11T01:24:04;100819.28;;;-1.23;47.75
10948;BME280;5526;42.070;24.752;2023-02-11T01:26:31;100813.97;;;-1.21;47.55
10948;BME280;5526;42.070;24.752;2023-02-11T01:28:58;100804.03;;;-1.26;47.68
10948;BME280;5526;42.070;24.752;2023-02-11T01:31:25;100798.59;;;-1.32;47.41
10948;BME280;5526;42.070;24.752;2023-02-11T01:33:54;100801.03;;;-1.31;47.99
10948;BME280;5526;42.070;24.752;2023-02-11T01:36:20;100804.97;;;-1.36;47.43
10948;BME280;5526;42.070;24.752;2023-02-11T01:38:47;100798.72;;;-1.43;48.16
10948;BME280;5526;42.070;24.752;2023-02-11T01:41:15;100770.31;;;-1.43;48.18
10948;BME280;5526;42.070;24.752;2023-02-11T01:43:44;100788.81;;;-1.29;48.36
10948;BME280;5526;42.070;24.752;2023-02-11T01:46:19;100794.22;;;-1.32;48.06
10948;BME280;5526;42.070;24.752;2023-02-11T01:48:49;100795.72;;;-1.39;48.01
10948;BME280;5526;42.070;24.752;2023-02-11T01:51:23;100788.47;;;-1.54;48.12
10948;BME280;5526;42.070;24.752;2023-02-11T01:53:51;100788.63;;;-1.56;48.89
10948;BME280;5526;42.070;24.752;2023-02-11T01:56:40;100792.22;;;-1.77;49.62
10948;BME280;5526;42.070;24.752;2023-02-11T01:59:29;100789.13;;;-1.71;49.66
10948;BME280;5526;42.070;24.752;2023-02-11T02:01:59;100781.78;;;-1.76;49.42
10948;BME280;5526;42.070;24.752;2023-02-11T02:04:33;100788.88;;;-1.68;49.82
10948;BME280;5526;42.070;24.752;2023-02-11T02:07:05;100787.09;;;-1.68;49.92
10948;BME280;5526;42.070;24.752;2023-02-11T02:09:37;100780.72;;;-1.64;49.48
10948;BME280;5526;42.070;24.752;2023-02-11T02:12:05;100781.09;;;-1.78;49.29
10948;BME280;5526;42.070;24.752;2023-02-11T02:14:37;100786.41;;;-1.70;50.19
10948;BME280;5526;42.070;24.752;2023-02-11T02:17:04;100760.84;;;-1.82;49.25
10948;BME280;5526;42.070;24.752;2023-02-11T02:26:10;100781.44;;;-1.92;51.16
10948;BME280;5526;42.070;24.752;2023-02-11T02:29:12;100772.44;;;-2.07;51.31
10948;BME280;5526;42.070;24.752;2023-02-11T02:31:53;100779.38;;;-1.98;50.92
10948;BME280;5526;42.070;24.752;2023-02-11T02:34:34;100790.66;;;-1.99;50.89
10948;BME280;5526;42.070;24.752;2023-02-11T02:37:06;100788.66;;;-1.95;50.14
10948;BME280;5526;42.070;24.752;2023-02-11T02:39:36;100784.44;;;-1.87;49.85
10948;BME280;5526;42.070;24.752;2023-02-11T02:42:04;100791.38;;;-1.87;49.86
10948;BME280;5526;42.070;24.752;2023-02-11T02:44:31;100788.22;;;-1.91;50.07
10948;BME280;5526;42.070;24.752;2023-02-11T02:46:59;100792.81;;;-2.04;50.20
10948;BME280;5526;42.070;24.752;2023-02-11T02:49:26;100799.84;;;-2.06;49.99
10948;BME280;5526;42.070;24.752;2023-02-11T02:52:12;100791.78;;;-1.92;50.33
10948;BME280;5526;42.070;24.752;2023-02-11T02:54:57;100790.94;;;-1.92;50.40
10948;BME280;5526;42.070;24.752;2023-02-11T02:57:31;100798.31;;;-1.88;50.60
10948;BME280;5526;42.070;24.752;2023-02-11T03:00:17;100801.59;;;-1.86;50.47
10948;BME280;5526;42.070;24.752;2023-02-11T03:02:52;100791.56;;;-1.79;50.11
10948;BME280;5526;42.070;24.752;2023-02-11T03:05:29;100799.88;;;-1.96;49.76
10948;BME280;5526;42.070;24.752;2023-02-11T03:08:04;100799.84;;;-2.06;50.56
10948;BME280;5526;42.070;24.752;2023-02-11T03:10:36;100789.53;;;-2.06;50.39
10948;BME280;5526;42.070;24.752;2023-02-11T03:13:04;100798.63;;;-2.11;50.69
10948;BME280;5526;42.070;24.752;2023-02-11T03:15:37;100799.59;;;-2.03;50.98
10948;BME280;5526;42.070;24.752;2023-02-11T03:18:06;100780.81;;;-2.14;51.04
10948;BME280;5526;42.070;24.752;2023-02-11T03:20:36;100793.31;;;-2.10;50.75
10948;BME280;5526;42.070;24.752;2023-02-11T03:23:11;100786.09;;;-2.16;51.63
10948;BME280;5526;42.070;24.752;2023-02-11T03:25:44;100792.38;;;-2.09;51.35
10948;BME280;5526;42.070;24.752;2023-02-11T03:28:21;100794.78;;;-2.17;51.63
10948;BME280;5526;42.070;24.752;2023-02-11T03:30:55;100788.88;;;-2.28;52.01
10948;BME280;5526;42.070;24.752;2023-02-11T03:33:30;100788.56;;;-2.35;52.38
10948;BME280;5526;42.070;24.752;2023-02-11T03:36:03;100800.28;;;-2.51;52.84
10948;BME280;5526;42.070;24.752;2023-02-11T03:38:38;100793.25;;;-2.70;54.31
10948;BME280;5526;42.070;24.752;2023-02-11T03:41:10;100796.25;;;-2.65;55.01
10948;BME280;5526;42.070;24.752;2023-02-11T03:43:41;100792.13;;;-2.56;54.55
10948;BME280;5526;42.070;24.752;2023-02-11T03:46:10;100793.94;;;-2.68;54.53
10948;BME280;5526;42.070;24.752;2023-02-11T03:48:42;100789.47;;;-2.66;54.45
10948;BME280;5526;42.070;24.752;2023-02-11T03:51:11;100802.16;;;-2.74;54.33
10948;BME280;5526;42.070;24.752;2023-02-11T03:53:43;100802.34;;;-2.86;53.98
10948;BME280;5526;42.070;24.752;2023-02-11T03:56:14;100808.13;;;-2.94;55.04
10948;BME280;5526;42.070;24.752;2023-02-11T03:58:43;100805.97;;;-2.89;55.40
10948;BME280;5526;42.070;24.752;2023-02-11T04:01:11;100793.50;;;-2.93;55.33
10948;BME280;5526;42.070;24.752;2023-02-11T04:03:37;100803.53;;;-2.90;55.63
10948;BME280;5526;42.070;24.752;2023-02-11T04:06:05;100808.78;;;-2.92;55.70
10948;BME280;5526;42.070;24.752;2023-02-11T04:08:32;100799.00;;;-2.98;55.63
10948;BME280;5526;42.070;24.752;2023-02-11T04:11:00;100803.63;;;-2.92;56.15
10948;BME280;5526;42.070;24.752;2023-02-11T04:13:27;100806.50;;;-2.95;55.60
10948;BME280;5526;42.070;24.752;2023-02-11T04:15:54;100807.28;;;-2.94;56.10
10948;BME280;5526;42.070;24.752;2023-02-11T04:18:21;100803.78;;;-2.93;56.62
10948;BME280;5526;42.070;24.752;2023-02-11T04:20:49;100808.31;;;-2.86;56.66
10948;BME280;5526;42.070;24.752;2023-02-11T04:23:16;100798.25;;;-2.89;56.59
10948;BME280;5526;42.070;24.752;2023-02-11T04:25:43;100796.25;;;-2.85;56.79
10948;BME280;5526;42.070;24.752;2023-02-11T04:28:11;100784.50;;;-2.78;56.60
10948;BME280;5526;42.070;24.752;2023-02-11T04:30:38;100777.75;;;-2.90;56.54
10948;BME280;5526;42.070;24.752;2023-02-11T04:33:05;100777.81;;;-3.01;56.15
10948;BME280;5526;42.070;24.752;2023-02-11T04:35:32;100792.91;;;-2.97;57.28
10948;BME280;5526;42.070;24.752;2023-02-11T04:37:59;100793.25;;;-3.01;56.86
10948;BME280;5526;42.070;24.752;2023-02-11T04:40:26;100784.84;;;-3.03;57.24
10948;BME280;5526;42.070;24.752;2023-02-11T04:42:53;100781.91;;;-2.99;57.56
10948;BME280;5526;42.070;24.752;2023-02-11T04:45:21;100782.84;;;-3.00;57.13
10948;BME280;5526;42.070;24.752;2023-02-11T04:47:48;100781.22;;;-3.01;57.54
10948;BME280;5526;42.070;24.752;2023-02-11T04:50:15;100776.06;;;-3.01;57.32
10948;BME280;5526;42.070;24.752;2023-02-11T04:52:42;100782.53;;;-3.06;57.97
10948;BME280;5526;42.070;24.752;2023-02-11T04:55:09;100775.09;;;-3.00;58.02
10948;BME280;5526;42.070;24.752;2023-02-11T04:57:36;100765.53;;;-2.98;58.09
10948;BME280;5526;42.070;24.752;2023-02-11T05:00:04;100771.69;;;-2.89;58.05
10948;BME280;5526;42.070;24.752;2023-02-11T05:02:33;100771.72;;;-2.80;57.43
10948;BME280;5526;42.070;24.752;2023-02-11T05:05:00;100768.72;;;-2.85;57.54
10948;BME280;5526;42.070;24.752;2023-02-11T05:07:27;100773.16;;;-2.76;57.31
10948;BME280;5526;42.070;24.752;2023-02-11T05:09:54;100767.66;;;-2.82;57.38
10948;BME280;5526;42.070;24.752;2023-02-11T05:12:21;100771.34;;;-2.96;57.02
10948;BME280;5526;42.070;24.752;2023-02-11T05:14:48;100767.97;;;-2.96;57.45
10948;BME280;5526;42.070;24.752;2023-02-11T05:17:15;100768.97;;;-2.88;57.09
10948;BME280;5526;42.070;24.752;2023-02-11T05:19:43;100779.25;;;-2.88;56.91
10948;BME280;5526;42.070;24.752;2023-02-11T05:22:10;100773.06;;;-2.85;57.26
10948;BME280;5526;42.070;24.752;2023-02-11T05:24:37;100781.84;;;-2.88;57.32
10948;BME280;5526;42.070;24.752;2023-02-11T05:27:04;100765.84;;;-2.91;56.98
10948;BME280;5526;42.070;24.752;2023-02-11T05:29:31;100779.25;;;-2.88;57.21
10948;BME280;5526;42.070;24.752;2023-02-11T05:31:58;100777.97;;;-2.82;57.12
10948;BME280;5526;42.070;24.752;2023-02-11T05:34:25;100746.78;;;-3.00;57.05
10948;BME280;5526;42.070;24.752;2023-02-11T05:36:54;100784.00;;;-2.72;57.00
10948;BME280;5526;42.070;24.752;2023-02-11T05:39:21;100784.84;;;-2.72;56.59
10948;BME280;5526;42.070;24.752;2023-02-11T05:41:48;100791.94;;;-2.64;56.59
10948;BME280;5526;42.070;24.752;2023-02-11T05:44:15;100793.06;;;-2.57;56.67
10948;BME280;5526;42.070;24.752;2023-02-11T05:46:41;100784.94;;;-2.53;56.68
10948;BME280;5526;42.070;24.752;2023-02-11T05:49:09;100790.78;;;-2.51;56.60
10948;BME280;5526;42.070;24.752;2023-02-11T05:51:36;100793.69;;;-2.44;56.74
10948;BME280;5526;42.070;24.752;2023-02-11T05:54:04;100800.16;;;-2.29;56.41
10948;BME280;5526;42.070;24.752;2023-02-11T05:56:31;100795.16;;;-2.21;56.60
10948;BME280;5526;42.070;24.752;2023-02-11T05:58:58;100792.50;;;-2.10;56.88
10948;BME280;5526;42.070;24.752;2023-02-11T06:01:25;100787.13;;;-1.98;56.16
10948;BME280;5526;42.070;24.752;2023-02-11T06:03:52;100789.06;;;-1.90;55.90
10948;BME280;5526;42.070;24.752;2023-02-11T06:06:19;100790.31;;;-1.85;55.85
10948;BME280;5526;42.070;24.752;2023-02-11T06:08:46;100790.34;;;-1.75;55.31
10948;BME280;5526;42.070;24.752;2023-02-11T06:11:15;100788.81;;;-1.87;55.35
10948;BME280;5526;42.070;24.752;2023-02-11T06:13:43;100782.31;;;-1.82;55.83
10948;BME280;5526;42.070;24.752;2023-02-11T06:16:10;100775.78;;;-1.86;55.70
10948;BME280;5526;42.070;24.752;2023-02-11T06:18:37;100787.81;;;-1.96;55.73
10948;BME280;5526;42.070;24.752;2023-02-11T06:21:06;100786.94;;;-1.76;55.77
10948;BME280;5526;42.070;24.752;2023-02-11T06:23:33;100786.81;;;-1.74;55.55
10948;BME280;5526;42.070;24.752;2023-02-11T06:26:02;100784.47;;;-1.77;55.55
10948;BME280;5526;42.070;24.752;2023-02-11T06:28:31;100787.47;;;-1.72;55.78
10948;BME280;5526;42.070;24.752;2023-02-11T06:31:00;100793.81;;;-1.95;56.13
10948;BME280;5526;42.070;24.752;2023-02-11T06:33:30;100786.13;;;-1.67;56.05
10948;BME280;5526;42.070;24.752;2023-02-11T06:35:57;100782.94;;;-1.50;55.43
10948;BME280;5526;42.070;24.752;2023-02-11T06:38:24;100786.22;;;-1.19;54.86
10948;BME280;5526;42.070;24.752;2023-02-11T06:40:51;100794.41;;;-0.86;54.28
10948;BME280;5526;42.070;24.752;2023-02-11T06:43:18;100799.56;;;-1.05;54.38
10948;BME280;5526;42.070;24.752;2023-02-11T06:45:51;100787.06;;;-1.00;54.85
10948;BME280;5526;42.070;24.752;2023-02-11T06:48:18;100782.69;;;-0.71;54.44
10948;BME280;5526;42.070;24.752;2023-02-11T06:50:45;100783.09;;;-0.66;53.92
10948;BME280;5526;42.070;24.752;2023-02-11T06:53:12;100790.69;;;-0.45;54.25
10948;BME280;5526;42.070;24.752;2023-02-11T06:55:40;100787.59;;;-0.22;53.33
10948;BME280;5526;42.070;24.752;2023-02-11T06:58:06;100790.78;;;-0.28;54.21
10948;BME280;5526;42.070;24.752;2023-02-11T07:00:33;100753.28;;;-0.70;55.10
10948;BME280;5526;42.070;24.752;2023-02-11T07:03:02;100789.34;;;-0.59;56.01
10948;BME280;5526;42.070;24.752;2023-02-11T07:05:29;100790.56;;;-0.63;57.07
10948;BME280;5526;42.070;24.752;2023-02-11T07:07:56;100761.06;;;-0.98;58.33
10948;BME280;5526;42.070;24.752;2023-02-11T07:10:23;100777.94;;;-0.85;58.08
10948;BME280;5526;42.070;24.752;2023-02-11T07:12:50;100778.06;;;-0.67;57.93
10948;BME280;5526;42.070;24.752;2023-02-11T07:15:17;100783.19;;;-0.48;57.60
10948;BME280;5526;42.070;24.752;2023-02-11T07:17:44;100775.59;;;-0.69;59.07
10948;BME280;5526;42.070;24.752;2023-02-11T07:20:12;100778.81;;;-0.38;58.39
10948;BME280;5526;42.070;24.752;2023-02-11T07:22:40;100774.91;;;-0.06;56.98
10948;BME280;5526;42.070;24.752;2023-02-11T07:25:07;100776.69;;;-0.06;57.36
10948;BME280;5526;42.070;24.752;2023-02-11T07:27:34;100774.56;;;-0.30;57.38
10948;BME280;5526;42.070;24.752;2023-02-11T07:30:01;100759.34;;;-0.33;58.00
10948;BME280;5526;42.070;24.752;2023-02-11T07:32:28;100775.88;;;-0.16;58.22
10948;BME280;5526;42.070;24.752;2023-02-11T07:34:55;100764.91;;;0.09;57.42
10948;BME280;5526;42.070;24.752;2023-02-11T07:37:24;100767.94;;;0.49;56.25
10948;BME280;5526;42.070;24.752;2023-02-11T07:39:51;100759.03;;;0.96;55.55
10948;BME280;5526;42.070;24.752;2023-02-11T07:42:18;100763.66;;;1.28;54.56
10948;BME280;5526;42.070;24.752;2023-02-11T07:44:45;100767.03;;;1.46;54.65
10948;BME280;5526;42.070;24.752;2023-02-11T07:47:12;100759.88;;;1.65;53.49
10948;BME280;5526;42.070;24.752;2023-02-11T07:49:39;100770.50;;;1.80;53.05
10948;BME280;5526;42.070;24.752;2023-02-11T07:52:06;100765.34;;;1.62;54.02
10948;BME280;5526;42.070;24.752;2023-02-11T07:54:34;100766.84;;;1.98;52.31
10948;BME280;5526;42.070;24.752;2023-02-11T07:57:01;100764.25;;;1.98;53.49
10948;BME280;5526;42.070;24.752;2023-02-11T07:59:28;100759.47;;;1.86;52.90
10948;BME280;5526;42.070;24.752;2023-02-11T08:01:55;100772.41;;;2.11;50.49
10948;BME280;5526;42.070;24.752;2023-02-11T08:04:22;100762.28;;;2.26;50.62
10948;BME280;5526;42.070;24.752;2023-02-11T08:06:49;100765.56;;;2.44;50.99
10948;BME280;5526;42.070;24.752;2023-02-11T08:09:17;100753.91;;;2.56;50.16
10948;BME280;5526;42.070;24.752;2023-02-11T08:11:46;100767.03;;;2.54;49.85
10948;BME280;5526;42.070;24.752;2023-02-11T08:14:13;100757.41;;;2.31;49.56
10948;BME280;5526;42.070;24.752;2023-02-11T08:16:40;100760.03;;;2.39;48.60
10948;BME280;5526;42.070;24.752;2023-02-11T08:19:09;100753.66;;;2.25;47.72
10948;BME280;5526;42.070;24.752;2023-02-11T08:21:37;100755.97;;;2.36;48.08
10948;BME280;5526;42.070;24.752;2023-02-11T08:24:05;100748.03;;;2.46;47.51
10948;BME280;5526;42.070;24.752;2023-02-11T08:26:33;100741.59;;;2.74;48.16
10948;BME280;5526;42.070;24.752;2023-02-11T08:29:06;100747.50;;;2.34;47.44
10948;BME280;5526;42.070;24.752;2023-02-11T08:31:35;100734.91;;;2.55;48.18
10948;BME280;5526;42.070;24.752;2023-02-11T08:34:02;100727.75;;;2.49;47.26
10948;BME280;5526;42.070;24.752;2023-02-11T08:36:31;100725.47;;;2.46;47.12
10948;BME280;5526;42.070;24.752;2023-02-11T08:39:00;100720.44;;;2.37;47.24
10948;BME280;5526;42.070;24.752;2023-02-11T08:41:28;100730.75;;;2.86;46.68
10948;BME280;5526;42.070;24.752;2023-02-11T08:43:55;100716.59;;;2.73;45.40
10948;BME280;5526;42.070;24.752;2023-02-11T08:46:24;100729.91;;;2.78;45.50
10948;BME280;5526;42.070;24.752;2023-02-11T08:48:51;100718.53;;;2.79;45.70
10948;BME280;5526;42.070;24.752;2023-02-11T08:51:20;100718.06;;;2.83;45.37
10948;BME280;5526;42.070;24.752;2023-02-11T08:53:49;100718.53;;;3.11;44.99
10948;BME280;5526;42.070;24.752;2023-02-11T08:56:18;100714.75;;;3.53;44.30
10948;BME280;5526;42.070;24.752;2023-02-11T08:58:45;100718.25;;;3.84;44.79
10948;BME280;5526;42.070;24.752;2023-02-11T09:01:14;100720.91;;;3.60;44.73
10948;BME280;5526;42.070;24.752;2023-02-11T09:03:43;100725.84;;;3.15;44.35
10948;BME280;5526;42.070;24.752;2023-02-11T09:06:11;100708.41;;;3.56;45.06
10948;BME280;5526;42.070;24.752;2023-02-11T09:08:40;100712.34;;;4.29;43.89
10948;BME280;5526;42.070;24.752;2023-02-11T09:11:08;100711.41;;;4.22;43.85
10948;BME280;5526;42.070;24.752;2023-02-11T09:13:36;100704.84;;;4.56;42.74
10948;BME280;5526;42.070;24.752;2023-02-11T09:16:04;100709.78;;;4.74;42.55
10948;BME280;5526;42.070;24.752;2023-02-11T09:18:31;100707.44;;;4.79;42.43
10948;BME280;5526;42.070;24.752;2023-02-11T09:21:03;100710.66;;;4.36;42.60
10948;BME280;5526;42.070;24.752;2023-02-11T09:23:30;100709.47;;;4.46;42.63
10948;BME280;5526;42.070;24.752;2023-02-11T09:25:59;100705.75;;;4.41;43.16
10948;BME280;5526;42.070;24.752;2023-02-11T09:28:26;100701.44;;;5.16;42.34
10948;BME280;5526;42.070;24.752;2023-02-11T09:30:53;100704.38;;;4.98;40.73
10948;BME280;5526;42.070;24.752;2023-02-11T09:33:20;100692.56;;;5.25;41.22
10948;BME280;5526;42.070;24.752;2023-02-11T09:35:47;100685.47;;;4.96;39.08
10948;BME280;5526;42.070;24.752;2023-02-11T09:38:16;100684.84;;;5.31;38.84
10948;BME280;5526;42.070;24.752;2023-02-11T09:40:43;100678.09;;;5.51;39.29
10948;BME280;5526;42.070;24.752;2023-02-11T09:43:14;100667.13;;;5.85;38.68
10948;BME280;5526;42.070;24.752;2023-02-11T09:45:43;100662.31;;;5.74;37.35
10948;BME280;5526;42.070;24.752;2023-02-11T09:48:13;100649.09;;;5.61;38.15
10948;BME280;5526;42.070;24.752;2023-02-11T09:50:43;100652.19;;;6.14;38.30
10948;BME280;5526;42.070;24.752;2023-02-11T09:53:15;100640.31;;;6.33;37.60
10948;BME280;5526;42.070;24.752;2023-02-11T09:55:47;100647.66;;;5.87;36.03
10948;BME280;5526;42.070;24.752;2023-02-11T09:58:24;100636.78;;;5.84;36.95
10948;BME280;5526;42.070;24.752;2023-02-11T10:00:59;100633.47;;;5.96;35.93
10948;BME280;5526;42.070;24.752;2023-02-11T10:03:51;100619.34;;;6.05;35.64
10948;BME280;5526;42.070;24.752;2023-02-11T10:06:43;100615.84;;;5.69;35.31
10948;BME280;5526;42.070;24.752;2023-02-11T10:12:20;100601.28;;;5.89;35.00
10948;BME280;5526;42.070;24.752;2023-02-11T10:15:05;100586.09;;;5.99;34.71
10948;BME280;5526;42.070;24.752;2023-02-11T10:17:39;100583.69;;;6.19;35.39
10948;BME280;5526;42.070;24.752;2023-02-11T10:20:22;100581.38;;;6.30;34.90
10948;BME280;5526;42.070;24.752;2023-02-11T10:22:53;100583.13;;;6.23;34.93
10948;BME280;5526;42.070;24.752;2023-02-11T10:25:23;100579.19;;;6.34;34.81
10948;BME280;5526;42.070;24.752;2023-02-11T10:27:54;100580.06;;;6.41;34.55
10948;BME280;5526;42.070;24.752;2023-02-11T10:30:27;100570.97;;;6.85;34.29
10948;BME280;5526;42.070;24.752;2023-02-11T10:33:00;100556.66;;;6.81;33.17
10948;BME280;5526;42.070;24.752;2023-02-11T10:35:28;100557.34;;;6.96;33.96
10948;BME280;5526;42.070;24.752;2023-02-11T10:37:55;100546.47;;;6.65;34.36
10948;BME280;5526;42.070;24.752;2023-02-11T10:40:24;100543.34;;;6.76;34.12
10948;BME280;5526;42.070;24.752;2023-02-11T10:42:56;100541.19;;;6.86;33.41
10948;BME280;5526;42.070;24.752;2023-02-11T10:45:28;100528.56;;;6.96;32.78
10948;BME280;5526;42.070;24.752;2023-02-11T10:47:56;100528.63;;;7.09;32.89
10948;BME280;5526;42.070;24.752;2023-02-11T10:50:26;100531.19;;;6.96;32.57
10948;BME280;5526;42.070;24.752;2023-02-11T10:53:11;100520.34;;;7.40;32.76
10948;BME280;5526;42.070;24.752;2023-02-11T10:55:49;100515.88;;;8.13;32.35
10948;BME280;5526;42.070;24.752;2023-02-11T10:58:24;100511.28;;;8.35;31.11
10948;BME280;5526;42.070;24.752;2023-02-11T11:00:52;100506.56;;;7.91;31.63
10948;BME280;5526;42.070;24.752;2023-02-11T11:03:22;100498.16;;;8.28;31.50
10948;BME280;5526;42.070;24.752;2023-02-11T11:05:51;100497.75;;;8.44;30.27
10948;BME280;5526;42.070;24.752;2023-02-11T11:08:18;100485.19;;;7.88;31.00
10948;BME280;5526;42.070;24.752;2023-02-11T11:10:47;100492.91;;;8.48;30.28
10948;BME280;5526;42.070;24.752;2023-02-11T11:13:33;100487.25;;;8.25;29.76
10948;BME280;5526;42.070;24.752;2023-02-11T11:16:18;100459.22;;;8.12;29.89
10948;BME280;5526;42.070;24.752;2023-02-11T11:18:47;100466.81;;;8.79;29.90
10948;BME280;5526;42.070;24.752;2023-02-11T11:21:18;100456.19;;;9.18;29.41
10948;BME280;5526;42.070;24.752;2023-02-11T11:23:56;100456.84;;;9.45;28.90
10948;BME280;5526;42.070;24.752;2023-02-11T11:26:26;100448.88;;;9.27;29.41
10948;BME280;5526;42.070;24.752;2023-02-11T11:28:59;100440.22;;;9.20;29.16
10948;BME280;5526;42.070;24.752;2023-02-11T11:31:30;100433.56;;;9.17;29.62
10948;BME280;5526;42.070;24.752;2023-02-11T11:34:01;100430.09;;;9.30;28.84
10948;BME280;5526;42.070;24.752;2023-02-11T11:36:34;100431.72;;;9.62;28.26
10948;BME280;5526;42.070;24.752;2023-02-11T11:39:19;100419.31;;;9.38;27.77
10948;BME280;5526;42.070;24.752;2023-02-11T11:41:53;100426.97;;;9.46;28.08
10948;BME280;5526;42.070;24.752;2023-02-11T11:44:28;100415.69;;;8.95;27.18
10948;BME280;5526;42.070;24.752;2023-02-11T11:47:15;100411.28;;;9.26;28.12
10948;BME280;5526;42.070;24.752;2023-02-11T11:49:50;100413.22;;;9.44;27.89
10948;BME280;5526;42.070;24.752;2023-02-11T11:52:31;100406.66;;;9.53;27.27
10948;BME280;5526;42.070;24.752;2023-02-11T11:55:03;100398.59;;;9.54;27.58
10948;BME280;5526;42.070;24.752;2023-02-11T11:57:36;100386.91;;;9.75;27.18
10948;BME280;5526;42.070;24.752;2023-02-11T12:00:13;100375.38;;;9.76;26.36
10948;BME280;5526;42.070;24.752;2023-02-11T12:03:15;100381.59;;;9.81;26.18
10948;BME280;5526;42.070;24.752;2023-02-11T12:05:59;100380.78;;;10.12;27.08
10948;BME280;5526;42.070;24.752;2023-02-11T12:08:36;100378.28;;;9.92;25.89
10948;BME280;5526;42.070;24.752;2023-02-11T12:11:12;100379.41;;;9.23;26.26
10948;BME280;5526;42.070;24.752;2023-02-11T12:13:58;100367.66;;;9.81;25.54
10948;BME280;5526;42.070;24.752;2023-02-11T12:16:38;100366.53;;;10.19;26.06
10948;BME280;5526;42.070;24.752;2023-02-11T12:19:38;100371.81;;;10.19;25.15
10948;BME280;5526;42.070;24.752;2023-02-11T12:22:10;100361.84;;;10.21;26.11
10948;BME280;5526;42.070;24.752;2023-02-11T12:24:48;100346.72;;;10.17;25.54
10948;BME280;5526;42.070;24.752;2023-02-11T12:27:27;100351.09;;;10.23;25.33
10948;BME280;5526;42.070;24.752;2023-02-11T12:30:05;100340.31;;;10.13;24.96
10948;BME280;5526;42.070;24.752;2023-02-11T12:32:41;100349.91;;;10.01;24.88
10948;BME280;5526;42.070;24.752;2023-02-11T12:35:20;100347.44;;;10.06;25.42
10948;BME280;5526;42.070;24.752;2023-02-11T12:38:17;100346.16;;;10.33;24.46
10948;BME280;5526;42.070;24.752;2023-02-11T12:40:56;100332.41;;;10.31;24.75
10948;BME280;5526;42.070;24.752;2023-02-11T12:43:30;100338.56;;;10.61;25.04
10948;BME280;5526;42.070;24.752;2023-02-11T12:46:23;100334.25;;;10.66;23.92
10948;BME280;5526;42.070;24.752;2023-02-11T12:49:14;100331.78;;;10.53;23.76
10948;BME280;5526;42.070;24.752;2023-02-11T12:52:00;100333.19;;;10.13;24.09
10948;BME280;5526;42.070;24.752;2023-02-11T12:54:34;100333.81;;;10.33;24.79
10948;BME280;5526;42.070;24.752;2023-02-11T12:57:07;100327.22;;;10.42;24.31
10948;BME280;5526;42.070;24.752;2023-02-11T12:59:45;100332.91;;;10.21;23.78
10948;BME280;5526;42.070;24.752;2023-02-11T13:02:20;100326.22;;;10.61;24.21
10948;BME280;5526;42.070;24.752;2023-02-11T13:04:53;100325.84;;;10.87;24.06
10948;BME280;5526;42.070;24.752;2023-02-11T13:07:27;100319.50;;;10.95;23.69
10948;BME280;5526;42.070;24.752;2023-02-11T13:09:58;100315.25;;;10.94;23.66
10948;BME280;5526;42.070;24.752;2023-02-11T13:12:31;100319.69;;;11.11;23.97
10948;BME280;5526;42.070;24.752;2023-02-11T13:15:17;100313.16;;;10.66;24.30
10948;BME280;5526;42.070;24.752;2023-02-11T13:17:51;100314.28;;;10.59;22.68
10948;BME280;5526;42.070;24.752;2023-02-11T13:20:33;100295.72;;;10.36;23.08